Time;durP1;ratioP1;P1;durP2;ratioP2;P2;SDS_P1;SDS_P2;PMS_P1;PMS_P2;Temp;Humidity;BMP_temperature;BMP_pressure;BME280_temperature;BME280_humidity;BME280_pressure;Samples;Min_cycle;Max_cycle;Signal;HPM_P1;HPM_P2
2023/03/13 00:01:23;;;;;;;1.80;1.70;;;;;;;;;;6302740;22;20011;-76
2023/03/13 00:03:49;;;;;;;3.22;1.90;;;;;;;;;;6302451;22;20065;-77
2023/03/13 00:06:15;;;;;;;1.42;1.42;;;;;;;;;;6302408;22;20060;-79
2023/03/13 00:08:41;;;;;;;1.85;1.48;;;;;;;;;;6302785;22;20011;-80
2023/03/13 00:11:08;;;;;;;1.55;1.48;;;;;;;;;;6303551;22;20029;-78
2023/03/13 00:13:35;;;;;;;1.75;1.70;;;;;;;;;;6306082;22;20350;-80
2023/03/13 00:16:02;;;;;;;1.45;1.45;;;;;;;;;;6308870;22;20101;-80
2023/03/13 00:18:28;;;;;;;1.50;1.40;;;;;;;;;;6317916;22;20025;-80
2023/03/13 00:21:02;;;;;;;5.50;1.80;;;;;;;;;;6309866;22;20006;-79
2023/03/13 00:23:28;;;;;;;1.48;1.48;;;;;;;;;;6308345;22;20014;-77
2023/03/13 00:25:55;;;;;;;1.40;1.40;;;;;;;;;;6307050;22;20017;-78
2023/03/13 00:28:21;;;;;;;2.42;1.63;;;;;;;;;;6308042;22;20017;-78
2023/03/13 00:30:47;;;;;;;1.30;1.30;;;;;;;;;;6335699;22;20011;-79
2023/03/13 00:33:13;;;;;;;2.00;1.90;;;;;;;;;;6336565;22;20040;-76
2023/03/13 00:35:39;;;;;;;3.63;2.58;;;;;;;;;;6321781;22;20021;-77
2023/03/13 00:38:05;;;;;;;1.80;1.70;;;;;;;;;;6320302;22;20071;-78
2023/03/13 00:40:31;;;;;;;2.17;1.92;;;;;;;;;;6348063;22;20011;-78
2023/03/13 00:42:58;;;;;;;3.80;1.75;;;;;;;;;;6345792;22;20041;-76
2023/03/13 00:45:25;;;;;;;2.35;2.25;;;;;;;;;;6299147;22;20010;-78
2023/03/13 00:47:51;;;;;;;1.20;1.20;;;;;;;;;;6351927;22;20010;-78
2023/03/13 00:50:18;;;;;;;1.60;1.50;;;;;;;;;;6295500;22;20080;-78
2023/03/13 00:52:44;;;;;;;2.17;1.65;;;;;;;;;;6321615;22;20038;-77
2023/03/13 00:55:10;;;;;;;1.90;1.80;;;;;;;;;;6340591;22;20021;-78
2023/03/13 00:57:36;;;;;;;1.98;1.88;;;;;;;;;;6306780;22;20010;-79
2023/03/13 01:00:04;;;;;;;1.70;1.58;;;;;;;;;;6334513;22;20019;-78
2023/03/13 01:02:30;;;;;;;2.22;2.13;;;;;;;;;;6307222;22;20015;-78
2023/03/13 01:04:57;;;;;;;1.80;1.80;;;;;;;;;;6307284;22;20017;-77
2023/03/13 01:07:23;;;;;;;2.80;2.60;;;;;;;;;;6309284;22;20011;-77
2023/03/13 01:09:49;;;;;;;2.08;1.83;;;;;;;;;;6309016;22;20532;-78
2023/03/13 01:12:15;;;;;;;1.92;1.83;;;;;;;;;;6336087;22;20409;-78
2023/03/13 01:14:41;;;;;;;1.65;1.55;;;;;;;;;;6283177;22;20010;-78
2023/03/13 01:17:07;;;;;;;2.05;1.95;;;;;;;;;;6308870;22;20086;-77
2023/03/13 01:19:33;;;;;;;1.30;1.30;;;;;;;;;;6308556;22;20648;-77
2023/03/13 01:21:59;;;;;;;2.10;2.00;;;;;;;;;;6256668;22;20010;-78
2023/03/13 01:24:25;;;;;;;1.90;1.80;;;;;;;;;;6308630;22;20015;-78
2023/03/13 01:26:51;;;;;;;2.20;2.10;;;;;;;;;;6335735;22;20085;-79
2023/03/13 01:29:17;;;;;;;1.63;1.63;;;;;;;;;;6308416;22;20018;-78
2023/03/13 01:31:44;;;;;;;1.63;1.63;;;;;;;;;;6308389;22;20014;-78
2023/03/13 01:34:10;;;;;;;1.35;1.35;;;;;;;;;;6336362;22;20003;-80
2023/03/13 01:36:36;;;;;;;2.13;2.03;;;;;;;;;;6308934;22;20443;-80
2023/03/13 01:39:02;;;;;;;1.95;1.85;;;;;;;;;;6336079;22;20034;-80
2023/03/13 01:41:28;;;;;;;2.13;2.03;;;;;;;;;;6308888;22;20395;-79
2023/03/13 01:43:55;;;;;;;2.83;1.73;;;;;;;;;;6308677;22;20102;-79
2023/03/13 01:46:23;;;;;;;1.70;1.70;;;;;;;;;;6283435;22;20010;-78
2023/03/13 01:49:14;;;;;;;1.60;1.60;;;;;;;;;;6308597;22;20352;-78
2023/03/13 01:52:12;;;;;;;1.50;1.50;;;;;;;;;;6315263;22;20014;-79
2023/03/13 01:54:44;;;;;;;2.70;2.50;;;;;;;;;;6284308;22;20156;-79
2023/03/13 01:57:32;;;;;;;2.15;2.05;;;;;;;;;;6308458;22;20026;-77
2023/03/13 01:59:59;;;;;;;3.00;2.25;;;;;;;;;;6308241;22;20019;-79
2023/03/13 02:02:25;;;;;;;2.40;2.22;;;;;;;;;;6257550;22;20018;-77
2023/03/13 02:04:53;;;;;;;2.13;2.03;;;;;;;;;;6308458;22;20396;-78
2023/03/13 02:07:21;;;;;;;2.13;2.03;;;;;;;;;;6336688;22;20034;-77
2023/03/13 02:09:49;;;;;;;2.00;1.90;;;;;;;;;;6282935;22;20011;-78
2023/03/13 02:12:21;;;;;;;2.10;2.00;;;;;;;;;;6308132;22;20014;-78
2023/03/13 02:14:47;;;;;;;2.20;2.03;;;;;;;;;;6282320;22;20022;-77
2023/03/13 02:17:13;;;;;;;1.60;1.60;;;;;;;;;;6282662;22;20018;-78
2023/03/13 02:19:50;;;;;;;2.38;1.73;;;;;;;;;;6336170;22;20057;-77
2023/03/13 02:22:26;;;;;;;2.00;1.90;;;;;;;;;;6335568;22;20006;-77
2023/03/13 02:25:27;;;;;;;2.20;2.10;;;;;;;;;;6308027;22;20015;-78
2023/03/13 02:27:57;;;;;;;1.77;1.70;;;;;;;;;;6154383;23;20017;-77
2023/03/13 02:30:23;;;;;;;1.85;1.75;;;;;;;;;;6255524;22;20011;-77
2023/03/13 02:32:49;;;;;;;1.58;1.48;;;;;;;;;;6307381;22;20446;-76
2023/03/13 02:35:16;;;;;;;1.83;1.73;;;;;;;;;;6308259;22;20509;-75
2023/03/13 02:37:43;;;;;;;7.28;1.63;;;;;;;;;;6307834;22;20447;-76
2023/03/13 02:40:14;;;;;;;1.52;1.52;;;;;;;;;;6283480;22;20071;-77
2023/03/13 02:42:42;;;;;;;2.08;1.98;;;;;;;;;;6287937;22;20011;-78
2023/03/13 02:45:08;;;;;;;1.90;1.80;;;;;;;;;;6286494;22;20003;-75
2023/03/13 02:47:34;;;;;;;1.45;1.45;;;;;;;;;;6339092;22;20018;-77
2023/03/13 02:50:00;;;;;;;1.95;1.85;;;;;;;;;;6312344;22;20043;-79
2023/03/13 02:52:27;;;;;;;2.05;1.95;;;;;;;;;;6308667;22;20011;-77
2023/03/13 02:55:12;;;;;;;1.48;1.48;;;;;;;;;;6282359;22;20400;-76
2023/03/13 02:57:38;;;;;;;1.75;1.65;;;;;;;;;;6307414;22;20038;-77
2023/03/13 03:00:05;;;;;;;1.58;1.58;;;;;;;;;;6281817;22;20025;-77
2023/03/13 03:02:32;;;;;;;2.05;1.95;;;;;;;;;;6307983;22;20071;-78
2023/03/13 03:04:58;;;;;;;2.30;2.20;;;;;;;;;;6307985;22;20014;-79
2023/03/13 03:07:24;;;;;;;2.05;1.95;;;;;;;;;;6306909;22;20022;-77
2023/03/13 03:09:51;;;;;;;2.45;2.35;;;;;;;;;;6307053;22;20046;-77
2023/03/13 03:12:19;;;;;;;1.77;1.70;;;;;;;;;;6257090;22;20516;-76
2023/03/13 03:14:44;;;;;;;2.40;2.30;;;;;;;;;;6307668;22;20461;-77
2023/03/13 03:17:11;;;;;;;4.10;2.50;;;;;;;;;;6281453;22;20006;-79
2023/03/13 03:19:37;;;;;;;2.42;2.33;;;;;;;;;;6282371;22;20095;-78
2023/03/13 03:22:03;;;;;;;2.13;2.03;;;;;;;;;;6307194;22;20015;-77
2023/03/13 03:24:31;;;;;;;2.33;2.22;;;;;;;;;;6307059;22;20085;-76
2023/03/13 03:26:57;;;;;;;2.80;2.60;;;;;;;;;;6306739;22;20007;-76
2023/03/13 03:29:32;;;;;;;3.17;2.95;;;;;;;;;;6283566;22;20015;-77
2023/03/13 03:31:58;;;;;;;5.63;3.67;;;;;;;;;;6307056;22;20093;-75
2023/03/13 03:34:24;;;;;;;5.80;5.30;;;;;;;;;;6307167;22;20014;-75
2023/03/13 03:36:51;;;;;;;5.40;4.90;;;;;;;;;;6307260;22;20015;-76
2023/03/13 03:39:18;;;;;;;4.45;4.05;;;;;;;;;;6334692;22;20086;-75
2023/03/13 03:41:44;;;;;;;5.60;4.65;;;;;;;;;;6335176;22;20014;-75
2023/03/13 03:44:10;;;;;;;8.27;4.25;;;;;;;;;;6280588;22;20018;-76
2023/03/13 03:46:50;;;;;;;5.13;4.72;;;;;;;;;;6280193;22;20022;-75
2023/03/13 03:49:16;;;;;;;3.05;2.83;;;;;;;;;;6255717;22;20002;-76
2023/03/13 03:51:43;;;;;;;2.97;2.75;;;;;;;;;;6307354;22;20014;-75
2023/03/13 03:54:09;;;;;;;3.47;3.20;;;;;;;;;;6306838;22;20056;-75
2023/03/13 03:56:35;;;;;;;4.53;3.58;;;;;;;;;;6335223;22;20011;-77
2023/03/13 03:59:01;;;;;;;8.95;3.53;;;;;;;;;;6306032;22;20025;-76
2023/03/13 04:01:38;;;;;;;5.30;4.57;;;;;;;;;;6281707;22;20014;-75
2023/03/13 04:04:04;;;;;;;5.75;4.10;;;;;;;;;;6280917;22;20072;-76
2023/03/13 04:06:31;;;;;;;5.38;4.60;;;;;;;;;;6281360;22;20079;-75
2023/03/13 04:08:57;;;;;;;4.68;4.15;;;;;;;;;;6306124;22;20094;-75
2023/03/13 04:11:26;;;;;;;4.57;4.28;;;;;;;;;;6281096;22;20098;-76
2023/03/13 04:13:54;;;;;;;4.72;3.47;;;;;;;;;;6306803;22;20196;-76
2023/03/13 04:16:20;;;;;;;3.95;3.65;;;;;;;;;;6307429;22;20053;-75
2023/03/13 04:18:47;;;;;;;2.75;2.63;;;;;;;;;;6280706;22;20029;-76
2023/03/13 04:21:15;;;;;;;3.67;3.42;;;;;;;;;;6281024;22;20034;-75
2023/03/13 04:23:52;;;;;;;5.18;3.70;;;;;;;;;;6305804;22;20010;-76
2023/03/13 04:26:18;;;;;;;3.17;2.85;;;;;;;;;;6303508;22;20401;-75
2023/03/13 04:28:45;;;;;;;4.97;3.63;;;;;;;;;;6303345;22;20098;-75
2023/03/13 04:31:16;;;;;;;3.45;3.15;;;;;;;;;;6304111;22;20038;-76
2023/03/13 04:34:16;;;;;;;3.00;2.80;;;;;;;;;;6304061;22;20410;-76
2023/03/13 04:36:52;;;;;;;4.10;3.47;;;;;;;;;;6306446;22;20435;-79
2023/03/13 04:39:40;;;;;;;3.40;3.20;;;;;;;;;;6234565;22;20093;-77
2023/03/13 04:42:34;;;;;;;2.85;2.65;;;;;;;;;;6337014;22;20454;-77
2023/03/13 04:45:23;;;;;;;3.88;3.22;;;;;;;;;;6328269;22;20016;-77
2023/03/13 04:47:50;;;;;;;2.08;1.98;;;;;;;;;;6309823;22;20152;-78
2023/03/13 04:50:36;;;;;;;2.20;2.10;;;;;;;;;;6337306;22;20011;-80
2023/03/13 04:53:12;;;;;;;2.10;2.00;;;;;;;;;;6284010;22;20017;-79
2023/03/13 04:56:01;;;;;;;2.72;2.58;;;;;;;;;;6301877;22;20011;-77
2023/03/13 04:58:50;;;;;;;2.65;2.00;;;;;;;;;;6265122;22;20018;-77
2023/03/13 05:01:35;;;;;;;2.22;2.10;;;;;;;;;;6337283;22;20015;-77
2023/03/13 05:04:32;;;;;;;2.30;2.20;;;;;;;;;;6282414;22;20011;-78
2023/03/13 05:07:18;;;;;;;2.53;2.42;;;;;;;;;;6287097;22;20037;-77
2023/03/13 05:10:11;;;;;;;2.05;1.95;;;;;;;;;;6304620;22;20018;-79
2023/03/13 05:13:05;;;;;;;2.25;2.15;;;;;;;;;;6281374;22;20011;-78
2023/03/13 05:15:45;;;;;;;2.20;2.10;;;;;;;;;;6259596;22;20102;-79
2023/03/13 05:18:40;;;;;;;4.50;2.45;;;;;;;;;;6317035;22;20022;-77
2023/03/13 05:21:27;;;;;;;2.15;2.05;;;;;;;;;;6334361;22;20431;-79
2023/03/13 05:24:32;;;;;;;2.20;2.10;;;;;;;;;;6316699;22;20019;-77
2023/03/13 05:27:08;;;;;;;2.42;2.33;;;;;;;;;;6333785;22;20029;-76
2023/03/13 05:29:56;;;;;;;2.40;2.30;;;;;;;;;;6332663;22;20018;-77
2023/03/13 05:32:36;;;;;;;2.35;2.25;;;;;;;;;;6307983;22;20033;-79
2023/03/13 05:35:22;;;;;;;2.58;2.47;;;;;;;;;;6317690;22;20073;-78
2023/03/13 05:38:15;;;;;;;2.15;2.00;;;;;;;;;;6279462;22;20553;-80
2023/03/13 05:40:59;;;;;;;2.45;2.28;;;;;;;;;;6334312;22;20007;-79
2023/03/13 05:43:37;;;;;;;4.95;2.25;;;;;;;;;;6307011;22;20015;-77
2023/03/13 05:46:03;;;;;;;2.20;2.00;;;;;;;;;;6334501;22;20018;-77
2023/03/13 05:48:44;;;;;;;2.15;2.05;;;;;;;;;;6284240;22;20426;-78
2023/03/13 05:51:33;;;;;;;2.58;2.47;;;;;;;;;;6263784;22;20007;-78
2023/03/13 05:54:16;;;;;;;3.42;3.22;;;;;;;;;;6306259;22;20021;-78
2023/03/13 05:57:02;;;;;;;2.47;2.38;;;;;;;;;;6333840;22;20007;-78
2023/03/13 05:59:52;;;;;;;2.17;2.08;;;;;;;;;;6336597;22;20554;-81
2023/03/13 06:02:38;;;;;;;3.00;2.75;;;;;;;;;;6337507;22;20013;-79
2023/03/13 06:05:06;;;;;;;2.55;2.42;;;;;;;;;;6281971;22;20088;-79
2023/03/13 06:07:32;;;;;;;2.80;2.60;;;;;;;;;;6257042;22;20006;-78
2023/03/13 06:09:58;;;;;;;2.67;2.58;;;;;;;;;;6284715;22;20022;-78
2023/03/13 06:12:24;;;;;;;4.07;2.85;;;;;;;;;;6338593;22;20015;-78
2023/03/13 06:14:51;;;;;;;2.08;1.98;;;;;;;;;;6338146;22;20022;-78
2023/03/13 06:17:24;;;;;;;2.35;2.17;;;;;;;;;;6313316;22;20015;-80
2023/03/13 06:19:51;;;;;;;3.80;2.85;;;;;;;;;;6336053;22;20068;-78
2023/03/13 06:22:17;;;;;;;4.57;3.78;;;;;;;;;;6335374;22;20006;-79
2023/03/13 06:24:43;;;;;;;2.28;2.17;;;;;;;;;;6341681;22;19995;-86
2023/03/13 06:27:10;;;;;;;4.07;3.70;;;;;;;;;;6307928;22;20078;-82
2023/03/13 06:29:36;;;;;;;3.75;3.20;;;;;;;;;;6333344;22;20041;-83
2023/03/13 06:32:02;;;;;;;2.95;2.72;;;;;;;;;;6358394;22;20010;-81
2023/03/13 06:34:28;;;;;;;2.47;2.38;;;;;;;;;;6349219;22;20096;-79
2023/03/13 06:36:57;;;;;;;2.42;2.30;;;;;;;;;;6324985;22;20030;-81
2023/03/13 06:39:23;;;;;;;3.83;3.40;;;;;;;;;;6348321;22;20041;-79
2023/03/13 06:41:49;;;;;;;3.55;3.00;;;;;;;;;;6319589;22;20011;-76
2023/03/13 06:44:15;;;;;;;5.57;3.05;;;;;;;;;;6318551;22;20034;-78
2023/03/13 06:46:41;;;;;;;3.25;2.88;;;;;;;;;;6310470;22;20026;-78
2023/03/13 06:49:07;;;;;;;2.67;2.47;;;;;;;;;;6336609;22;20096;-79
2023/03/13 06:51:34;;;;;;;7.30;3.08;;;;;;;;;;6337739;22;20110;-79
2023/03/13 06:54:01;;;;;;;2.83;2.63;;;;;;;;;;6335802;22;20522;-78
2023/03/13 06:56:27;;;;;;;2.63;2.42;;;;;;;;;;6308827;22;20862;-79
2023/03/13 06:58:53;;;;;;;2.50;2.35;;;;;;;;;;6318020;22;20030;-78
2023/03/13 07:01:19;;;;;;;3.15;3.05;;;;;;;;;;6305388;22;20037;-78
2023/03/13 07:03:46;;;;;;;2.55;2.35;;;;;;;;;;6276259;22;20467;-78
2023/03/13 07:06:12;;;;;;;2.72;2.60;;;;;;;;;;6251157;22;20017;-78
2023/03/13 07:08:38;;;;;;;2.58;2.38;;;;;;;;;;6304079;22;20019;-78
2023/03/13 07:11:05;;;;;;;2.65;2.53;;;;;;;;;;6302819;22;20574;-76
2023/03/13 07:13:31;;;;;;;2.50;2.30;;;;;;;;;;6276073;22;20011;-78
2023/03/13 07:16:03;;;;;;;5.20;2.35;;;;;;;;;;6303897;22;20014;-77
2023/03/13 07:18:29;;;;;;;4.07;2.80;;;;;;;;;;6305096;22;20027;-80
2023/03/13 07:20:56;;;;;;;2.50;2.40;;;;;;;;;;6307562;22;20465;-81
2023/03/13 07:23:22;;;;;;;1.90;1.80;;;;;;;;;;6280608;22;20015;-81
2023/03/13 07:25:51;;;;;;;3.00;2.80;;;;;;;;;;6305726;22;20680;-78
2023/03/13 07:28:18;;;;;;;3.05;2.42;;;;;;;;;;6302580;22;20026;-77
2023/03/13 07:30:44;;;;;;;3.10;2.90;;;;;;;;;;6303686;22;20440;-79
2023/03/13 07:33:10;;;;;;;2.83;2.50;;;;;;;;;;6303306;22;20028;-77
2023/03/13 07:35:36;;;;;;;2.50;2.30;;;;;;;;;;6275763;22;20101;-78
2023/03/13 07:38:02;;;;;;;2.72;2.55;;;;;;;;;;6277483;22;20043;-80
2023/03/13 07:40:28;;;;;;;2.67;2.58;;;;;;;;;;6277269;22;20015;-79
2023/03/13 07:42:54;;;;;;;2.83;2.63;;;;;;;;;;6303368;22;20013;-80
2023/03/13 07:45:20;;;;;;;2.55;2.38;;;;;;;;;;6276195;22;20043;-81
2023/03/13 07:47:46;;;;;;;2.58;2.40;;;;;;;;;;6303187;22;20022;-80
2023/03/13 07:50:12;;;;;;;2.80;2.60;;;;;;;;;;6250272;22;20361;-80
2023/03/13 07:52:38;;;;;;;2.90;2.70;;;;;;;;;;6275463;22;20015;-81
2023/03/13 07:55:04;;;;;;;2.90;2.40;;;;;;;;;;6302555;22;20094;-80
2023/03/13 07:57:31;;;;;;;2.50;2.30;;;;;;;;;;6302292;22;20478;-80
2023/03/13 07:59:57;;;;;;;3.20;2.75;;;;;;;;;;6277776;22;20011;-79
2023/03/13 08:02:23;;;;;;;3.92;2.63;;;;;;;;;;6278501;22;20370;-80
2023/03/13 08:04:52;;;;;;;2.58;2.15;;;;;;;;;;6304902;22;20065;-78
2023/03/13 08:07:18;;;;;;;2.42;2.20;;;;;;;;;;6274199;22;20086;-78
2023/03/13 08:09:44;;;;;;;3.85;2.97;;;;;;;;;;6302357;22;20031;-79
2023/03/13 08:12:10;;;;;;;2.58;2.38;;;;;;;;;;6303017;22;20096;-80
2023/03/13 08:14:36;;;;;;;2.13;2.03;;;;;;;;;;6278017;22;20015;-79
2023/03/13 08:17:03;;;;;;;2.08;1.95;;;;;;;;;;6306274;22;20019;-78
2023/03/13 08:19:28;;;;;;;2.28;2.17;;;;;;;;;;6304857;22;20030;-78
2023/03/13 08:21:54;;;;;;;2.30;2.20;;;;;;;;;;6277643;22;20086;-78
2023/03/13 08:24:20;;;;;;;2.00;1.90;;;;;;;;;;6304741;22;20050;-76
2023/03/13 08:26:46;;;;;;;1.90;1.80;;;;;;;;;;6277633;22;20070;-78
2023/03/13 08:29:13;;;;;;;2.15;2.05;;;;;;;;;;6303985;22;20018;-76
2023/03/13 08:31:46;;;;;;;3.42;3.13;;;;;;;;;;6277452;22;20091;-77
2023/03/13 08:34:12;;;;;;;2.30;2.17;;;;;;;;;;6303307;22;20100;-77
2023/03/13 08:36:38;;;;;;;2.67;2.47;;;;;;;;;;6275971;22;20015;-77
2023/03/13 08:39:05;;;;;;;3.55;3.25;;;;;;;;;;6276211;22;20019;-77
2023/03/13 08:41:33;;;;;;;4.03;3.50;;;;;;;;;;6277256;22;20037;-77
2023/03/13 08:43:59;;;;;;;2.13;2.03;;;;;;;;;;6303747;22;20094;-77
2023/03/13 08:46:25;;;;;;;2.33;2.22;;;;;;;;;;6304447;22;20061;-77
2023/03/13 08:48:52;;;;;;;5.60;2.90;;;;;;;;;;6304501;22;20022;-79
2023/03/13 08:51:18;;;;;;;2.60;2.40;;;;;;;;;;6251171;22;20007;-77
2023/03/13 08:53:44;;;;;;;2.30;2.20;;;;;;;;;;6303830;22;20045;-77
2023/03/13 08:56:15;;;;;;;2.70;2.28;;;;;;;;;;6276540;22;20408;-79
2023/03/13 08:58:41;;;;;;;2.78;2.55;;;;;;;;;;6304730;22;20019;-76
2023/03/13 09:01:08;;;;;;;2.15;2.05;;;;;;;;;;6303451;22;20356;-76
2023/03/13 09:03:35;;;;;;;2.50;2.30;;;;;;;;;;6306521;22;20015;-81
2023/03/13 09:06:01;;;;;;;2.55;2.13;;;;;;;;;;6278361;22;20014;-80
2023/03/13 09:08:27;;;;;;;2.25;1.98;;;;;;;;;;6279850;22;20008;-79
2023/03/13 09:10:54;;;;;;;3.08;2.60;;;;;;;;;;6308862;22;20482;-81
2023/03/13 09:13:20;;;;;;;2.35;2.25;;;;;;;;;;6310956;22;20022;-82
2023/03/13 09:15:52;;;;;;;2.90;2.70;;;;;;;;;;6316331;22;20016;-83
2023/03/13 09:18:19;;;;;;;3.85;2.88;;;;;;;;;;6315365;22;20019;-81
2023/03/13 09:20:44;;;;;;;2.60;2.50;;;;;;;;;;6313812;22;20392;-82
2023/03/13 09:23:11;;;;;;;2.40;2.20;;;;;;;;;;6311104;22;20048;-82
2023/03/13 09:25:37;;;;;;;5.13;2.15;;;;;;;;;;6316599;22;20022;-82
2023/03/13 09:28:03;;;;;;;3.70;2.20;;;;;;;;;;6282910;22;20019;-79
2023/03/13 09:30:29;;;;;;;2.97;2.72;;;;;;;;;;6306396;22;20018;-79
2023/03/13 09:32:55;;;;;;;3.28;3.08;;;;;;;;;;6309412;22;20011;-82
2023/03/13 09:35:21;;;;;;;3.00;2.80;;;;;;;;;;6308152;22;20042;-79
2023/03/13 09:37:47;;;;;;;2.90;2.70;;;;;;;;;;6277192;22;20022;-81
2023/03/13 09:40:13;;;;;;;2.63;2.40;;;;;;;;;;6252526;22;20094;-80
2023/03/13 09:42:44;;;;;;;2.55;2.35;;;;;;;;;;6276806;22;20074;-82
2023/03/13 09:45:37;;;;;;;2.17;2.08;;;;;;;;;;6305425;22;20094;-79
2023/03/13 09:48:19;;;;;;;2.75;2.55;;;;;;;;;;6272343;22;20011;-78
2023/03/13 09:50:47;;;;;;;2.67;2.58;;;;;;;;;;6255139;22;20069;-80
2023/03/13 09:53:13;;;;;;;2.25;2.15;;;;;;;;;;6277049;22;20105;-78
2023/03/13 09:55:40;;;;;;;2.88;2.67;;;;;;;;;;6285444;22;20018;-81
2023/03/13 09:58:25;;;;;;;2.78;2.58;;;;;;;;;;6283714;22;20019;-82
2023/03/13 10:01:01;;;;;;;2.22;2.13;;;;;;;;;;6259953;22;20013;-78
2023/03/13 10:03:27;;;;;;;2.80;2.40;;;;;;;;;;6282941;22;20007;-80
2023/03/13 10:06:10;;;;;;;2.20;2.10;;;;;;;;;;6279360;22;20037;-78
2023/03/13 10:08:36;;;;;;;4.85;3.03;;;;;;;;;;6266788;22;20022;-82
2023/03/13 10:11:26;;;;;;;2.72;2.45;;;;;;;;;;6288330;22;20019;-77
2023/03/13 10:13:55;;;;;;;2.80;2.60;;;;;;;;;;6260188;22;20007;-78
2023/03/13 10:16:23;;;;;;;2.53;2.33;;;;;;;;;;6302927;22;20018;-76
2023/03/13 10:18:53;;;;;;;3.03;2.80;;;;;;;;;;6302786;22;20026;-78
2023/03/13 10:21:20;;;;;;;2.13;2.03;;;;;;;;;;6275772;22;20019;-79
2023/03/13 10:23:57;;;;;;;2.63;2.53;;;;;;;;;;6304101;22;20007;-79
2023/03/13 10:26:33;;;;;;;3.38;3.17;;;;;;;;;;6303436;22;20007;-77
2023/03/13 10:29:01;;;;;;;2.65;2.55;;;;;;;;;;6251608;22;20413;-78
2023/03/13 10:31:33;;;;;;;2.47;2.33;;;;;;;;;;6306409;22;20015;-77
2023/03/13 10:34:10;;;;;;;5.15;4.65;;;;;;;;;;6276715;22;20011;-76
2023/03/13 10:36:46;;;;;;;3.67;3.47;;;;;;;;;;6304847;22;20090;-78
2023/03/13 10:39:16;;;;;;;2.17;2.08;;;;;;;;;;6302939;22;20019;-77
2023/03/13 10:41:42;;;;;;;3.08;2.88;;;;;;;;;;6277173;22;20019;-79
2023/03/13 10:44:19;;;;;;;3.72;3.42;;;;;;;;;;6276088;22;20011;-77
2023/03/13 10:46:46;;;;;;;2.70;2.50;;;;;;;;;;6303561;22;20065;-76
2023/03/13 10:49:16;;;;;;;2.78;2.60;;;;;;;;;;6303949;22;20493;-77
2023/03/13 10:51:52;;;;;;;2.30;2.20;;;;;;;;;;6285817;22;20015;-81
2023/03/13 10:54:23;;;;;;;2.50;2.30;;;;;;;;;;6284640;22;20105;-76
2023/03/13 10:56:49;;;;;;;3.03;2.83;;;;;;;;;;6276368;22;20015;-76
2023/03/13 10:59:20;;;;;;;2.15;2.05;;;;;;;;;;6303072;22;20474;-77
2023/03/13 11:01:46;;;;;;;2.37;2.27;;;;;;;;;;6252853;22;20042;-82
2023/03/13 11:04:19;;;;;;;4.97;2.42;;;;;;;;;;6277846;22;20007;-81
2023/03/13 11:06:57;;;;;;;2.28;2.17;;;;;;;;;;6278670;22;20019;-81
2023/03/13 11:09:25;;;;;;;3.40;2.55;;;;;;;;;;6311420;22;20498;-81
2023/03/13 11:11:53;;;;;;;2.25;2.15;;;;;;;;;;6281672;22;20109;-82
2023/03/13 11:14:19;;;;;;;3.42;3.08;;;;;;;;;;6279595;22;20007;-78
2023/03/13 11:16:48;;;;;;;3.25;3.05;;;;;;;;;;6304591;22;20011;-79
2023/03/13 11:19:29;;;;;;;2.00;1.90;;;;;;;;;;6303803;22;20019;-76
2023/03/13 11:22:10;;;;;;;2.47;2.38;;;;;;;;;;6304129;22;20069;-79
2023/03/13 11:24:42;;;;;;;4.50;2.78;;;;;;;;;;6304000;22;20017;-79
2023/03/13 11:27:28;;;;;;;2.42;2.33;;;;;;;;;;6280693;22;20026;-80
2023/03/13 11:30:12;;;;;;;2.88;2.60;;;;;;;;;;6314132;22;20030;-81
2023/03/13 11:32:42;;;;;;;2.70;2.60;;;;;;;;;;6309775;22;20015;-80
2023/03/13 11:35:28;;;;;;;3.20;2.97;;;;;;;;;;6261802;22;20007;-79
2023/03/13 11:37:55;;;;;;;2.47;2.17;;;;;;;;;;6242364;22;20043;-80
2023/03/13 11:40:26;;;;;;;1.90;1.80;;;;;;;;;;6305855;22;20015;-81
2023/03/13 11:42:52;;;;;;;;;;;;;;;;;;6280632;22;20014;-80
2023/03/13 11:45:36;;;;;;;2.63;2.42;;;;;;;;;;6305818;22;19907;-81
2023/03/13 11:48:21;;;;;;;2.53;2.33;;;;;;;;;;6312451;22;20022;-79
2023/03/13 11:51:06;;;;;;;2.47;2.22;;;;;;;;;;6309438;22;20011;-81
2023/03/13 11:53:44;;;;;;;1.92;1.92;;;;;;;;;;6279757;22;20592;-81
2023/03/13 11:56:20;;;;;;;2.28;2.17;;;;;;;;;;6306854;22;20053;-79
2023/03/13 11:58:56;;;;;;;2.03;1.92;;;;;;;;;;6304845;22;20042;-80
2023/03/13 12:01:23;;;;;;;2.40;2.30;;;;;;;;;;6279150;22;20018;-80
2023/03/13 12:04:05;;;;;;;2.20;2.10;;;;;;;;;;6279244;22;20015;-81
2023/03/13 12:06:45;;;;;;;2.40;2.30;;;;;;;;;;6279055;22;20038;-79
2023/03/13 12:09:15;;;;;;;2.20;2.10;;;;;;;;;;6277008;22;20011;-80
2023/03/13 12:12:02;;;;;;;2.20;2.10;;;;;;;;;;6308266;22;20030;-81
2023/03/13 12:14:30;;;;;;;2.40;2.28;;;;;;;;;;6279993;22;20550;-79
2023/03/13 12:16:59;;;;;;;2.22;2.08;;;;;;;;;;6278809;22;20011;-80
2023/03/13 12:19:35;;;;;;;2.92;2.72;;;;;;;;;;6306548;22;20023;-81
2023/03/13 12:22:12;;;;;;;3.40;3.13;;;;;;;;;;6253497;22;20010;-80
2023/03/13 12:24:39;;;;;;;3.13;2.85;;;;;;;;;;6306852;22;20015;-80
2023/03/13 12:27:08;;;;;;;2.88;2.67;;;;;;;;;;6281565;22;20455;-83
2023/03/13 12:29:46;;;;;;;2.65;2.55;;;;;;;;;;6280183;22;20011;-80
2023/03/13 12:32:28;;;;;;;2.60;2.50;;;;;;;;;;6279186;22;20650;-79
2023/03/13 12:35:06;;;;;;;2.20;2.10;;;;;;;;;;6304620;22;20015;-81
2023/03/13 12:37:41;;;;;;;2.10;2.00;;;;;;;;;;6230456;22;20546;-82
2023/03/13 12:40:10;;;;;;;2.15;2.05;;;;;;;;;;6280540;22;20019;-81
2023/03/13 12:42:37;;;;;;;2.30;2.20;;;;;;;;;;6306730;22;20046;-81
2023/03/13 12:45:04;;;;;;;2.40;2.30;;;;;;;;;;6307706;22;20011;-83
2023/03/13 12:47:30;;;;;;;2.50;2.40;;;;;;;;;;6307502;22;20419;-80
2023/03/13 12:49:56;;;;;;;2.25;2.15;;;;;;;;;;6253224;22;20453;-82
2023/03/13 12:52:28;;;;;;;2.25;2.15;;;;;;;;;;6309788;22;20011;-81
2023/03/13 12:54:54;;;;;;;2.35;2.25;;;;;;;;;;6279996;22;20090;-79
2023/03/13 12:57:23;;;;;;;2.13;2.00;;;;;;;;;;6305868;22;20023;-80
2023/03/13 12:59:52;;;;;;;1.95;1.90;;;;;;;;;;6307066;22;20498;-79
2023/03/13 13:02:24;;;;;;;2.38;2.03;;;;;;;;;;6305095;22;20007;-79
2023/03/13 13:04:52;;;;;;;2.20;2.10;;;;;;;;;;6279289;22;20076;-79
2023/03/13 13:07:28;;;;;;;2.28;2.17;;;;;;;;;;6277320;22;20581;-77
2023/03/13 13:10:09;;;;;;;2.25;2.08;;;;;;;;;;6304085;22;20018;-78
2023/03/13 13:12:38;;;;;;;2.60;2.28;;;;;;;;;;6281256;22;20075;-83
2023/03/13 13:15:19;;;;;;;3.35;2.40;;;;;;;;;;6323193;22;20011;-83
2023/03/13 13:17:45;;;;;;;2.45;2.35;;;;;;;;;;6312076;22;20011;-80
2023/03/13 13:20:29;;;;;;;4.70;1.80;;;;;;;;;;6311220;22;20045;-80
2023/03/13 13:22:55;;;;;;;1.90;1.80;;;;;;;;;;6284019;22;20076;-81
2023/03/13 13:25:27;;;;;;;2.15;2.05;;;;;;;;;;6285473;22;20018;-79
2023/03/13 13:27:53;;;;;;;2.00;1.90;;;;;;;;;;6284198;22;20034;-87
2023/03/13 13:30:19;;;;;;;2.45;1.98;;;;;;;;;;6304322;22;20026;-82
2023/03/13 13:32:47;;;;;;;2.50;2.25;;;;;;;;;;6320795;22;20451;-80
2023/03/13 13:35:29;;;;;;;1.88;1.77;;;;;;;;;;6328157;22;20067;-82
2023/03/13 13:38:14;;;;;;;1.85;1.75;;;;;;;;;;6266672;22;20061;-81
2023/03/13 13:40:40;;;;;;;2.28;2.08;;;;;;;;;;6309770;22;20094;-81
2023/03/13 13:43:14;;;;;;;1.50;1.50;;;;;;;;;;6312366;22;20007;-81
2023/03/13 13:45:53;;;;;;;1.60;1.60;;;;;;;;;;6279468;22;20022;-80
2023/03/13 13:48:34;;;;;;;1.77;1.70;;;;;;;;;;6315324;22;20037;-83
2023/03/13 13:51:10;;;;;;;4.68;1.73;;;;;;;;;;6287683;22;20015;-78
2023/03/13 13:53:42;;;;;;;1.58;1.55;;;;;;;;;;6304647;22;20086;-78
2023/03/13 13:56:29;;;;;;;1.85;1.75;;;;;;;;;;6275828;22;20015;-77
2023/03/13 13:58:59;;;;;;;1.52;1.52;;;;;;;;;;6306018;22;20050;-79
2023/03/13 14:01:25;;;;;;;1.48;1.48;;;;;;;;;;6283281;22;20018;-80
2023/03/13 14:03:52;;;;;;;1.80;1.70;;;;;;;;;;6286931;22;20076;-81
2023/03/13 14:06:18;;;;;;;1.50;1.50;;;;;;;;;;6314937;22;20011;-79
2023/03/13 14:08:45;;;;;;;1.70;1.60;;;;;;;;;;6317224;22;20018;-79
2023/03/13 14:11:24;;;;;;;1.55;1.55;;;;;;;;;;6293850;22;20007;-79
2023/03/13 14:14:09;;;;;;;2.30;1.52;;;;;;;;;;6284484;22;20011;-80
2023/03/13 14:16:36;;;;;;;1.58;1.48;;;;;;;;;;6314382;22;20086;-79
2023/03/13 14:19:02;;;;;;;1.65;1.55;;;;;;;;;;6271475;22;20033;-80
2023/03/13 14:21:28;;;;;;;1.30;1.20;;;;;;;;;;6325519;22;20062;-83
2023/03/13 14:23:54;;;;;;;1.40;1.40;;;;;;;;;;6328528;22;20003;-81
2023/03/13 14:26:21;;;;;;;3.53;1.58;;;;;;;;;;6299712;22;20010;-81
2023/03/13 14:28:48;;;;;;;1.10;1.10;;;;;;;;;;6322856;22;20469;-80
2023/03/13 14:31:23;;;;;;;1.50;1.50;;;;;;;;;;6319716;22;20459;-80
2023/03/13 14:33:49;;;;;;;1.63;1.52;;;;;;;;;;6291449;22;20015;-81
2023/03/13 14:36:15;;;;;;;1.30;1.30;;;;;;;;;;6298258;22;20014;-82
2023/03/13 14:38:49;;;;;;;1.38;1.35;;;;;;;;;;6317227;22;20019;-81
2023/03/13 14:41:34;;;;;;;1.45;1.45;;;;;;;;;;6321299;22;20034;-81
2023/03/13 14:44:01;;;;;;;1.58;1.45;;;;;;;;;;6323242;22;20007;-81
2023/03/13 14:46:31;;;;;;;1.60;1.60;;;;;;;;;;6263253;22;20754;-81
2023/03/13 14:49:17;;;;;;;2.08;1.98;;;;;;;;;;6288716;22;20014;-82
2023/03/13 14:51:44;;;;;;;1.73;1.60;;;;;;;;;;6318078;22;20077;-80
2023/03/13 14:54:23;;;;;;;3.47;1.80;;;;;;;;;;6319758;22;20021;-83
2023/03/13 14:56:50;;;;;;;2.22;1.50;;;;;;;;;;6321558;22;20015;-83
2023/03/13 14:59:16;;;;;;;1.50;1.50;;;;;;;;;;6292791;22;20035;-82
2023/03/13 15:01:42;;;;;;;1.50;1.50;;;;;;;;;;6295944;22;20007;-81
2023/03/13 15:04:08;;;;;;;1.00;1.00;;;;;;;;;;6321306;22;20078;-81
2023/03/13 15:06:34;;;;;;;1.05;1.05;;;;;;;;;;6302698;22;20007;-81